createdAt,value
2019-03-30T00:01:00.662Z,8.90
2019-03-30T00:05:06.111Z,8.90
2019-03-30T00:09:11.254Z,8.90
2019-03-30T00:13:16.356Z,8.90
2019-03-30T00:17:21.481Z,8.80
2019-03-30T00:21:26.561Z,8.80
2019-03-30T00:25:31.683Z,8.80
2019-03-30T00:29:36.813Z,8.70
2019-03-30T00:33:42.053Z,8.70
2019-03-30T00:37:47.212Z,8.60
2019-03-30T00:41:52.345Z,8.60
2019-03-30T00:45:57.468Z,8.60
2019-03-30T00:50:02.595Z,8.60
2019-03-30T00:54:07.707Z,8.50
2019-03-30T00:58:12.855Z,8.50
2019-03-30T01:02:17.947Z,8.50
2019-03-30T01:06:23.048Z,8.50
2019-03-30T01:10:28.196Z,8.40
2019-03-30T01:14:33.324Z,8.40
2019-03-30T01:18:38.461Z,8.30
2019-03-30T01:22:43.560Z,8.30
2019-03-30T01:26:48.664Z,8.20
2019-03-30T01:30:53.797Z,8.20
2019-03-30T01:34:58.937Z,8.20
2019-03-30T01:39:05.376Z,8.20
2019-03-30T01:43:10.629Z,8.20
2019-03-30T01:47:15.776Z,8.20
2019-03-30T01:51:20.912Z,8.20
2019-03-30T01:55:26.031Z,8.10
2019-03-30T01:59:31.161Z,8.10
2019-03-30T02:03:36.282Z,8.00
2019-03-30T02:07:41.414Z,8.00
2019-03-30T02:11:46.615Z,7.90
2019-03-30T02:15:51.735Z,7.90
2019-03-30T02:19:56.877Z,7.90
2019-03-30T02:24:02.001Z,7.90
2019-03-30T02:28:07.374Z,7.80
2019-03-30T02:32:12.557Z,7.80
2019-03-30T02:36:17.680Z,7.70
2019-03-30T02:40:22.814Z,7.60
2019-03-30T02:44:27.921Z,7.50
2019-03-30T02:48:32.998Z,7.50
2019-03-30T02:52:38.101Z,7.40
2019-03-30T02:56:41.867Z,6.90
2019-03-30T03:00:46.980Z,6.60
2019-03-30T03:04:52.101Z,6.40
2019-03-30T03:08:57.184Z,6.20
2019-03-30T03:13:02.397Z,6.10
2019-03-30T03:17:07.516Z,6.40
2019-03-30T03:21:12.627Z,6.60
2019-03-30T03:25:17.761Z,6.60
2019-03-30T03:29:22.859Z,6.70
2019-03-30T03:33:28.349Z,6.80
2019-03-30T03:37:44.552Z,6.80
2019-03-30T03:41:40.277Z,6.80
2019-03-30T03:45:45.398Z,6.90
2019-03-30T03:49:50.488Z,6.90
2019-03-30T03:53:56.649Z,6.90
2019-03-30T03:58:03.114Z,6.90
2019-03-30T04:02:10.820Z,6.90
2019-03-30T04:06:17.957Z,7.00
2019-03-30T04:10:26.165Z,7.00
2019-03-30T04:14:33.564Z,7.00
2019-03-30T04:18:38.679Z,7.00
2019-03-30T04:22:43.822Z,7.00
2019-03-30T04:26:48.957Z,7.00
2019-03-30T04:30:54.064Z,7.00
2019-03-30T04:34:59.186Z,7.00
2019-03-30T04:39:05.516Z,7.10
2019-03-30T04:43:10.668Z,7.10
2019-03-30T04:47:15.824Z,7.00
2019-03-30T04:51:20.931Z,7.00
2019-03-30T04:55:26.075Z,7.00
2019-03-30T04:59:31.206Z,7.00
2019-03-30T05:03:36.424Z,7.00
2019-03-30T05:07:41.541Z,7.00
2019-03-30T05:11:46.647Z,7.00
2019-03-30T05:15:51.763Z,7.00
2019-03-30T05:19:56.914Z,7.00
2019-03-30T05:24:02.047Z,7.00
2019-03-30T05:28:07.195Z,7.00
2019-03-30T05:32:12.304Z,7.10
2019-03-30T05:36:17.453Z,7.30
2019-03-30T05:40:22.580Z,7.40
2019-03-30T05:44:27.715Z,7.70
2019-03-30T05:48:32.835Z,7.90
2019-03-30T05:52:37.932Z,8.00
2019-03-30T05:56:43.041Z,8.00
2019-03-30T06:00:48.148Z,8.00
2019-03-30T06:04:53.283Z,7.90
2019-03-30T06:08:58.416Z,7.90
2019-03-30T06:13:03.565Z,7.90
2019-03-30T06:17:09.044Z,7.90
2019-03-30T06:24:29.635Z,7.90
2019-03-30T06:28:34.741Z,8.00
2019-03-30T06:32:39.865Z,8.10
2019-03-30T06:36:45.003Z,8.20
2019-03-30T06:40:50.136Z,7.90
2019-03-30T06:44:55.264Z,7.80
2019-03-30T06:49:00.460Z,7.80
2019-03-30T06:56:10.642Z,8.00
2019-03-30T07:00:15.855Z,8.00
2019-03-30T07:04:21.092Z,8.20
2019-03-30T07:11:20.460Z,8.40
2019-03-30T07:15:16.113Z,8.50
2019-03-30T07:19:23.122Z,8.70
2019-03-30T07:23:28.236Z,8.80
2019-03-30T07:27:35.023Z,8.90
2019-03-30T07:31:40.595Z,9.10
2019-03-30T07:35:45.714Z,9.20
2019-03-30T07:39:50.856Z,9.40
2019-03-30T07:43:55.949Z,9.50
2019-03-30T07:48:01.077Z,9.70
2019-03-30T07:52:06.238Z,9.80
2019-03-30T07:56:11.379Z,10.00
2019-03-30T08:00:16.575Z,10.90
2019-03-30T08:04:21.668Z,11.00
2019-03-30T08:08:26.804Z,12.10
2019-03-30T08:12:32.024Z,13.20
2019-03-30T08:16:37.149Z,13.90
2019-03-30T08:20:42.282Z,14.10
2019-03-30T08:24:47.373Z,14.10
2019-03-30T08:28:55.356Z,14.00
2019-03-30T08:33:00.475Z,14.00
2019-03-30T08:37:05.606Z,13.90
2019-03-30T08:41:10.735Z,13.90
2019-03-30T08:45:15.830Z,14.00
2019-03-30T08:49:20.980Z,14.00
2019-03-30T08:53:26.118Z,14.00
2019-03-30T08:57:31.248Z,14.00
2019-03-30T09:01:36.351Z,14.10
2019-03-30T09:05:42.228Z,14.20
2019-03-30T09:09:47.372Z,14.20
2019-03-30T09:13:52.492Z,14.20
2019-03-30T09:17:57.604Z,14.30
2019-03-30T09:22:02.828Z,14.40
2019-03-30T09:26:07.920Z,14.50
2019-03-30T09:30:13.501Z,14.60
2019-03-30T09:34:18.656Z,14.60
2019-03-30T09:38:23.760Z,14.70
2019-03-30T09:42:28.883Z,14.70
2019-03-30T09:46:33.975Z,14.80
2019-03-30T09:50:39.104Z,14.90
2019-03-30T09:54:44.264Z,15.00
2019-03-30T09:58:49.376Z,15.10
2019-03-30T10:02:54.487Z,15.20
2019-03-30T10:06:59.561Z,14.90
2019-03-30T10:11:04.748Z,14.90
2019-03-30T10:15:11.245Z,14.80
2019-03-30T10:19:16.383Z,14.70
2019-03-30T10:23:21.486Z,14.80
2019-03-30T10:27:26.583Z,14.80
2019-03-30T10:31:31.703Z,15.00
2019-03-30T10:35:36.825Z,15.30
2019-03-30T10:39:41.952Z,15.50
2019-03-30T10:43:47.069Z,15.60
2019-03-30T10:47:52.165Z,15.80
2019-03-30T10:51:57.295Z,15.80
2019-03-30T10:56:02.418Z,16.00
2019-03-30T11:00:09.233Z,16.10
2019-03-30T11:04:14.389Z,16.20
2019-03-30T11:08:19.479Z,16.00
2019-03-30T11:12:24.635Z,15.90
2019-03-30T11:16:29.760Z,15.80
2019-03-30T11:20:34.883Z,15.90
2019-03-30T11:24:39.994Z,15.90
2019-03-30T11:28:45.104Z,15.90
2019-03-30T11:32:50.230Z,16.00
2019-03-30T11:36:55.333Z,16.10
2019-03-30T11:41:00.440Z,16.20
2019-03-30T11:45:05.708Z,16.20
2019-03-30T11:49:10.800Z,16.30
2019-03-30T11:53:15.995Z,16.30
2019-03-30T11:57:21.116Z,16.40
2019-03-30T12:01:26.299Z,16.50
2019-03-30T12:05:31.416Z,16.60
2019-03-30T12:09:36.517Z,16.70
2019-03-30T12:13:41.625Z,16.80
2019-03-30T12:17:46.737Z,16.90
2019-03-30T12:21:51.852Z,17.00
2019-03-30T12:25:56.976Z,17.10
2019-03-30T12:30:02.057Z,17.20
2019-03-30T12:34:07.173Z,17.30
2019-03-30T12:38:12.303Z,17.50
2019-03-30T12:42:17.472Z,17.60
2019-03-30T12:46:22.610Z,17.80
2019-03-30T12:50:27.684Z,17.90
2019-03-30T12:54:32.849Z,18.00
2019-03-30T12:58:37.997Z,18.10
2019-03-30T13:02:43.127Z,18.20
2019-03-30T13:06:48.293Z,18.30
2019-03-30T13:10:53.454Z,18.40
2019-03-30T13:14:58.620Z,18.50
2019-03-30T13:19:03.769Z,18.60
2019-03-30T13:23:08.895Z,18.70
2019-03-30T13:27:14.031Z,18.70
2019-03-30T13:31:19.105Z,18.80
2019-03-30T13:35:24.250Z,18.90
2019-03-30T13:39:29.362Z,18.90
2019-03-30T13:43:34.473Z,19.00
2019-03-30T13:47:39.588Z,19.10
2019-03-30T13:51:44.687Z,19.20
2019-03-30T13:55:49.837Z,19.30
2019-03-30T13:59:54.981Z,19.30
2019-03-30T14:04:00.129Z,19.40
2019-03-30T14:08:05.244Z,19.40
2019-03-30T14:12:10.380Z,19.40
2019-03-30T14:16:15.528Z,19.60
2019-03-30T14:20:20.696Z,19.60
2019-03-30T14:24:25.835Z,19.70
2019-03-30T14:28:30.944Z,19.80
2019-03-30T14:32:36.042Z,19.60
2019-03-30T14:36:41.162Z,19.50
2019-03-30T14:40:46.287Z,19.40
2019-03-30T14:44:51.473Z,19.40
2019-03-30T14:48:56.624Z,19.50
2019-03-30T14:53:01.704Z,19.50
2019-03-30T14:57:06.852Z,19.50
2019-03-30T15:01:11.981Z,19.50
2019-03-30T15:05:17.106Z,19.60
2019-03-30T15:09:22.340Z,19.60
2019-03-30T15:13:27.969Z,19.60
2019-03-30T15:17:33.143Z,19.50
2019-03-30T15:21:38.319Z,19.40
2019-03-30T15:25:43.502Z,19.20
2019-03-30T15:29:48.644Z,19.00
2019-03-30T15:33:53.780Z,19.00
2019-03-30T15:37:58.897Z,18.90
2019-03-30T15:42:04.109Z,18.90
2019-03-30T15:46:09.240Z,18.90
2019-03-30T15:50:14.571Z,18.80
2019-03-30T15:54:19.663Z,18.70
2019-03-30T15:58:24.860Z,18.60
2019-03-30T16:02:29.993Z,18.50
2019-03-30T16:06:35.119Z,18.50
2019-03-30T16:10:40.303Z,18.50
2019-03-30T16:14:45.420Z,18.50
2019-03-30T16:18:50.526Z,18.60
2019-03-30T16:22:55.648Z,18.50
2019-03-30T16:27:00.773Z,18.50
2019-03-30T16:31:06.967Z,18.50
2019-03-30T16:35:13.434Z,18.40
2019-03-30T16:39:19.665Z,18.40
2019-03-30T16:43:24.873Z,18.30
2019-03-30T16:47:30.975Z,18.20
2019-03-30T16:51:36.048Z,18.10
2019-03-30T16:55:41.182Z,18.00
2019-03-30T16:59:46.293Z,18.00
2019-03-30T17:03:51.408Z,17.80
2019-03-30T17:07:59.218Z,17.80
2019-03-30T17:12:04.432Z,17.60
2019-03-30T17:16:09.650Z,17.60
2019-03-30T17:20:14.743Z,17.50
2019-03-30T17:24:19.868Z,17.40
2019-03-30T17:28:24.994Z,17.30
2019-03-30T17:32:30.224Z,17.20
2019-03-30T17:36:35.348Z,17.10
2019-03-30T17:40:41.615Z,16.90
2019-03-30T17:44:46.719Z,16.80
2019-03-30T17:48:51.876Z,16.70
2019-03-30T17:52:58.504Z,16.60
2019-03-30T17:57:03.617Z,16.50
2019-03-30T18:01:08.770Z,16.40
2019-03-30T18:05:14.056Z,16.30
2019-03-30T18:09:19.218Z,16.10
2019-03-30T18:13:24.343Z,16.00
2019-03-30T18:17:29.480Z,15.90
2019-03-30T18:21:37.711Z,15.70
2019-03-30T18:25:41.896Z,15.60
2019-03-30T18:29:46.980Z,15.50
2019-03-30T18:33:52.093Z,15.30
2019-03-30T18:37:57.524Z,15.20
2019-03-30T18:42:02.655Z,15.10
2019-03-30T18:46:07.851Z,15.00
2019-03-30T18:50:12.994Z,14.90
2019-03-30T18:54:18.614Z,14.70
2019-03-30T18:58:24.648Z,14.60
2019-03-30T19:02:29.775Z,14.40
2019-03-30T19:06:34.918Z,14.40
2019-03-30T19:10:40.088Z,14.30
2019-03-30T19:14:45.232Z,14.20
2019-03-30T19:18:50.373Z,14.10
2019-03-30T19:22:55.497Z,14.00
2019-03-30T19:27:02.308Z,13.90
2019-03-30T19:31:07.469Z,13.80
2019-03-30T19:35:12.616Z,13.80
2019-03-30T19:39:17.752Z,13.70
2019-03-30T19:43:22.836Z,13.60
2019-03-30T19:47:27.980Z,13.60
2019-03-30T19:51:33.112Z,13.50
2019-03-30T19:55:38.234Z,13.50
2019-03-30T19:59:43.376Z,13.40
2019-03-30T20:03:48.516Z,13.40
2019-03-30T20:07:53.639Z,13.70
2019-03-30T20:11:58.802Z,13.50
2019-03-30T20:16:03.924Z,13.40
2019-03-30T20:20:09.295Z,13.30
2019-03-30T20:24:14.403Z,13.20
2019-03-30T20:28:19.543Z,13.50
2019-03-30T20:32:24.680Z,13.60
2019-03-30T20:36:29.834Z,13.70
2019-03-30T20:40:35.000Z,13.70
2019-03-30T20:44:40.118Z,13.80
2019-03-30T20:48:45.287Z,13.70
2019-03-30T20:52:50.424Z,13.70
2019-03-30T20:56:55.552Z,13.70
2019-03-30T21:01:00.813Z,13.70
2019-03-30T21:05:06.483Z,13.60
2019-03-30T21:09:11.693Z,13.50
2019-03-30T21:13:16.844Z,13.50
2019-03-30T21:17:22.039Z,13.40
2019-03-30T21:23:51.301Z,13.30
2019-03-30T21:27:56.433Z,13.30
2019-03-30T21:32:01.576Z,13.20
2019-03-30T21:36:06.684Z,13.20
2019-03-30T21:40:11.919Z,13.20
2019-03-30T21:44:22.331Z,13.10
2019-03-30T21:48:23.862Z,13.00
2019-03-30T21:52:28.920Z,13.00
2019-03-30T21:56:34.056Z,12.90
2019-03-30T22:00:40.629Z,12.90
2019-03-30T22:04:45.776Z,12.80
2019-03-30T22:08:52.712Z,12.70
2019-03-30T22:12:57.988Z,12.70
2019-03-30T22:17:03.073Z,12.20
2019-03-30T22:21:08.192Z,11.90
2019-03-30T22:25:13.332Z,11.70
2019-03-30T22:29:18.464Z,11.50
2019-03-30T22:33:23.644Z,11.40
2019-03-30T22:37:28.727Z,11.20
2019-03-30T22:41:33.920Z,11.10
2019-03-30T22:45:39.064Z,11.40
2019-03-30T22:49:44.207Z,11.50
2019-03-30T22:53:49.343Z,11.60
2019-03-30T22:57:54.454Z,11.60
2019-03-30T23:01:59.575Z,11.60
2019-03-30T23:06:04.700Z,11.70
2019-03-30T23:10:09.877Z,11.70
2019-03-30T23:14:14.999Z,11.60
2019-03-30T23:18:20.112Z,11.60
2019-03-30T23:22:25.253Z,11.50
2019-03-30T23:26:30.404Z,11.50
2019-03-30T23:30:35.578Z,11.50
2019-03-30T23:34:40.723Z,11.40
2019-03-30T23:38:45.825Z,11.40
2019-03-30T23:42:50.975Z,11.30
2019-03-30T23:46:56.094Z,11.30
2019-03-30T23:51:01.249Z,11.30
2019-03-30T23:55:06.530Z,11.20
2019-03-30T23:59:11.639Z,11.20
